sensor_id;sensor_type;location;lat;lon;timestamp;P1;durP1;ratioP1;P2;durP2;ratioP2
6111;SDS011;3086;48.802;9.394;2023-05-09T00:03:14;16.43;;;13.50;;
6111;SDS011;3086;48.802;9.394;2023-05-09T00:06:35;13.50;;;12.20;;
6111;SDS011;3086;48.802;9.394;2023-05-09T00:09:58;15.77;;;13.87;;
6111;SDS011;3086;48.802;9.394;2023-05-09T00:13:20;15.80;;;14.10;;
6111;SDS011;3086;48.802;9.394;2023-05-09T00:16:42;19.03;;;14.30;;
6111;SDS011;3086;48.802;9.394;2023-05-09T00:20:05;17.37;;;14.77;;
6111;SDS011;3086;48.802;9.394;2023-05-09T00:23:30;15.67;;;13.33;;
6111;SDS011;3086;48.802;9.394;2023-05-09T00:26:53;15.50;;;13.97;;
6111;SDS011;3086;48.802;9.394;2023-05-09T00:30:15;14.37;;;12.10;;
6111;SDS011;3086;48.802;9.394;2023-05-09T00:33:36;12.70;;;10.67;;
6111;SDS011;3086;48.802;9.394;2023-05-09T00:36:59;13.20;;;11.57;;
6111;SDS011;3086;48.802;9.394;2023-05-09T00:40:20;13.87;;;11.87;;
6111;SDS011;3086;48.802;9.394;2023-05-09T00:43:43;13.43;;;12.00;;
6111;SDS011;3086;48.802;9.394;2023-05-09T00:47:05;18.47;;;12.73;;
6111;SDS011;3086;48.802;9.394;2023-05-09T00:50:27;14.50;;;13.10;;
6111;SDS011;3086;48.802;9.394;2023-05-09T00:53:48;14.47;;;12.90;;
6111;SDS011;3086;48.802;9.394;2023-05-09T00:57:10;15.70;;;13.53;;
6111;SDS011;3086;48.802;9.394;2023-05-09T01:00:33;15.17;;;12.50;;
6111;SDS011;3086;48.802;9.394;2023-05-09T01:03:55;13.50;;;11.77;;
6111;SDS011;3086;48.802;9.394;2023-05-09T01:07:18;13.20;;;11.73;;
6111;SDS011;3086;48.802;9.394;2023-05-09T01:10:43;15.93;;;13.53;;
6111;SDS011;3086;48.802;9.394;2023-05-09T01:14:11;16.20;;;13.30;;
6111;SDS011;3086;48.802;9.394;2023-05-09T01:17:39;20.30;;;14.77;;
6111;SDS011;3086;48.802;9.394;2023-05-09T01:21:07;15.87;;;13.53;;
6111;SDS011;3086;48.802;9.394;2023-05-09T01:24:33;18.63;;;12.63;;
6111;SDS011;3086;48.802;9.394;2023-05-09T01:28:07;13.93;;;12.27;;
6111;SDS011;3086;48.802;9.394;2023-05-09T01:31:34;14.67;;;12.70;;
6111;SDS011;3086;48.802;9.394;2023-05-09T01:34:59;17.97;;;12.83;;
6111;SDS011;3086;48.802;9.394;2023-05-09T01:38:21;13.87;;;11.50;;
6111;SDS011;3086;48.802;9.394;2023-05-09T01:41:44;13.57;;;11.47;;
6111;SDS011;3086;48.802;9.394;2023-05-09T01:45:08;17.10;;;13.33;;
6111;SDS011;3086;48.802;9.394;2023-05-09T01:48:32;14.97;;;13.30;;
6111;SDS011;3086;48.802;9.394;2023-05-09T01:51:55;15.27;;;13.33;;
6111;SDS011;3086;48.802;9.394;2023-05-09T01:55:17;15.43;;;13.77;;
6111;SDS011;3086;48.802;9.394;2023-05-09T01:58:39;15.07;;;12.97;;
6111;SDS011;3086;48.802;9.394;2023-05-09T02:02:02;19.47;;;14.67;;
6111;SDS011;3086;48.802;9.394;2023-05-09T02:05:26;16.70;;;13.63;;
6111;SDS011;3086;48.802;9.394;2023-05-09T02:08:48;15.47;;;13.83;;
6111;SDS011;3086;48.802;9.394;2023-05-09T02:12:10;16.57;;;14.77;;
6111;SDS011;3086;48.802;9.394;2023-05-09T02:15:32;15.13;;;13.47;;
6111;SDS011;3086;48.802;9.394;2023-05-09T02:18:54;21.10;;;15.83;;
6111;SDS011;3086;48.802;9.394;2023-05-09T02:22:17;17.37;;;15.43;;
6111;SDS011;3086;48.802;9.394;2023-05-09T02:25:38;17.17;;;15.37;;
6111;SDS011;3086;48.802;9.394;2023-05-09T02:29:01;19.07;;;15.40;;
6111;SDS011;3086;48.802;9.394;2023-05-09T02:32:24;25.53;;;19.87;;
6111;SDS011;3086;48.802;9.394;2023-05-09T02:35:48;22.40;;;17.47;;
6111;SDS011;3086;48.802;9.394;2023-05-09T02:39:11;21.77;;;17.70;;
6111;SDS011;3086;48.802;9.394;2023-05-09T02:42:33;19.70;;;17.53;;
6111;SDS011;3086;48.802;9.394;2023-05-09T02:45:54;21.37;;;18.63;;
6111;SDS011;3086;48.802;9.394;2023-05-09T02:49:16;29.63;;;20.37;;
6111;SDS011;3086;48.802;9.394;2023-05-09T02:52:37;28.27;;;20.57;;
6111;SDS011;3086;48.802;9.394;2023-05-09T02:56:00;27.63;;;20.30;;
6111;SDS011;3086;48.802;9.394;2023-05-09T02:59:22;28.57;;;22.70;;
6111;SDS011;3086;48.802;9.394;2023-05-09T03:02:46;28.80;;;21.77;;
6111;SDS011;3086;48.802;9.394;2023-05-09T03:06:07;26.73;;;20.70;;
6111;SDS011;3086;48.802;9.394;2023-05-09T03:09:29;22.33;;;18.30;;
6111;SDS011;3086;48.802;9.394;2023-05-09T03:12:52;22.77;;;18.00;;
6111;SDS011;3086;48.802;9.394;2023-05-09T03:16:13;17.90;;;15.83;;
6111;SDS011;3086;48.802;9.394;2023-05-09T03:19:37;19.50;;;16.67;;
6111;SDS011;3086;48.802;9.394;2023-05-09T03:22:58;22.07;;;17.67;;
6111;SDS011;3086;48.802;9.394;2023-05-09T03:26:20;21.93;;;19.33;;
6111;SDS011;3086;48.802;9.394;2023-05-09T03:29:43;21.43;;;17.53;;
6111;SDS011;3086;48.802;9.394;2023-05-09T03:33:04;23.50;;;18.77;;
6111;SDS011;3086;48.802;9.394;2023-05-09T03:36:26;23.43;;;18.53;;
6111;SDS011;3086;48.802;9.394;2023-05-09T03:39:47;21.67;;;17.27;;
6111;SDS011;3086;48.802;9.394;2023-05-09T03:43:09;20.47;;;17.70;;
6111;SDS011;3086;48.802;9.394;2023-05-09T03:46:32;24.30;;;18.93;;
6111;SDS011;3086;48.802;9.394;2023-05-09T03:49:53;25.47;;;21.47;;
6111;SDS011;3086;48.802;9.394;2023-05-09T03:53:15;27.27;;;20.17;;
6111;SDS011;3086;48.802;9.394;2023-05-09T03:56:36;26.63;;;21.17;;
6111;SDS011;3086;48.802;9.394;2023-05-09T03:59:58;27.83;;;21.60;;
6111;SDS011;3086;48.802;9.394;2023-05-09T04:03:20;33.23;;;25.80;;
6111;SDS011;3086;48.802;9.394;2023-05-09T04:06:42;30.90;;;23.23;;
6111;SDS011;3086;48.802;9.394;2023-05-09T04:10:04;30.80;;;24.60;;
6111;SDS011;3086;48.802;9.394;2023-05-09T04:13:26;29.67;;;24.40;;
6111;SDS011;3086;48.802;9.394;2023-05-09T04:16:48;26.73;;;23.27;;
6111;SDS011;3086;48.802;9.394;2023-05-09T04:20:11;25.33;;;21.43;;
6111;SDS011;3086;48.802;9.394;2023-05-09T04:23:34;22.73;;;18.97;;
6111;SDS011;3086;48.802;9.394;2023-05-09T04:26:55;25.83;;;20.33;;
6111;SDS011;3086;48.802;9.394;2023-05-09T04:30:17;29.57;;;21.67;;
6111;SDS011;3086;48.802;9.394;2023-05-09T04:33:39;27.17;;;20.47;;
6111;SDS011;3086;48.802;9.394;2023-05-09T04:37:02;24.60;;;20.07;;
6111;SDS011;3086;48.802;9.394;2023-05-09T04:40:24;30.97;;;22.17;;
6111;SDS011;3086;48.802;9.394;2023-05-09T04:43:46;30.07;;;21.07;;
6111;SDS011;3086;48.802;9.394;2023-05-09T04:47:07;27.20;;;19.77;;
6111;SDS011;3086;48.802;9.394;2023-05-09T04:50:29;24.77;;;19.57;;
6111;SDS011;3086;48.802;9.394;2023-05-09T04:53:52;23.70;;;20.20;;
6111;SDS011;3086;48.802;9.394;2023-05-09T04:57:13;24.20;;;20.27;;
6111;SDS011;3086;48.802;9.394;2023-05-09T05:00:35;22.00;;;18.10;;
6111;SDS011;3086;48.802;9.394;2023-05-09T05:03:56;22.27;;;18.37;;
6111;SDS011;3086;48.802;9.394;2023-05-09T05:07:18;20.50;;;17.00;;
6111;SDS011;3086;48.802;9.394;2023-05-09T05:10:41;21.43;;;17.63;;
6111;SDS011;3086;48.802;9.394;2023-05-09T05:14:02;18.57;;;16.27;;
6111;SDS011;3086;48.802;9.394;2023-05-09T05:17:24;22.57;;;18.67;;
6111;SDS011;3086;48.802;9.394;2023-05-09T05:20:48;23.10;;;20.57;;
6111;SDS011;3086;48.802;9.394;2023-05-09T05:24:09;23.50;;;19.50;;
6111;SDS011;3086;48.802;9.394;2023-05-09T05:27:32;23.57;;;20.97;;
6111;SDS011;3086;48.802;9.394;2023-05-09T05:30:54;23.67;;;20.73;;
6111;SDS011;3086;48.802;9.394;2023-05-09T05:34:15;24.43;;;21.83;;
6111;SDS011;3086;48.802;9.394;2023-05-09T05:37:37;25.53;;;21.53;;
6111;SDS011;3086;48.802;9.394;2023-05-09T05:40:58;25.63;;;21.17;;
6111;SDS011;3086;48.802;9.394;2023-05-09T05:44:21;24.30;;;21.20;;
6111;SDS011;3086;48.802;9.394;2023-05-09T05:47:43;23.27;;;20.20;;
6111;SDS011;3086;48.802;9.394;2023-05-09T05:51:04;22.83;;;20.40;;
6111;SDS011;3086;48.802;9.394;2023-05-09T05:54:26;24.60;;;19.90;;
6111;SDS011;3086;48.802;9.394;2023-05-09T05:57:47;23.67;;;19.70;;
6111;SDS011;3086;48.802;9.394;2023-05-09T06:01:10;21.47;;;19.17;;
6111;SDS011;3086;48.802;9.394;2023-05-09T06:04:32;22.60;;;19.87;;
6111;SDS011;3086;48.802;9.394;2023-05-09T06:07:54;23.40;;;20.90;;
6111;SDS011;3086;48.802;9.394;2023-05-09T06:11:15;23.73;;;20.27;;
6111;SDS011;3086;48.802;9.394;2023-05-09T06:14:37;23.57;;;20.20;;
6111;SDS011;3086;48.802;9.394;2023-05-09T06:18:00;22.70;;;19.20;;
6111;SDS011;3086;48.802;9.394;2023-05-09T06:21:22;21.20;;;19.03;;
6111;SDS011;3086;48.802;9.394;2023-05-09T06:24:43;21.60;;;19.40;;
6111;SDS011;3086;48.802;9.394;2023-05-09T06:28:05;23.03;;;20.13;;
6111;SDS011;3086;48.802;9.394;2023-05-09T06:31:26;21.83;;;19.53;;
6111;SDS011;3086;48.802;9.394;2023-05-09T06:34:49;21.13;;;18.83;;
6111;SDS011;3086;48.802;9.394;2023-05-09T06:38:11;21.67;;;18.50;;
6111;SDS011;3086;48.802;9.394;2023-05-09T06:41:33;22.20;;;19.20;;
6111;SDS011;3086;48.802;9.394;2023-05-09T06:44:54;22.10;;;18.80;;
6111;SDS011;3086;48.802;9.394;2023-05-09T06:48:16;19.77;;;17.60;;
6111;SDS011;3086;48.802;9.394;2023-05-09T06:51:39;20.63;;;18.50;;
6111;SDS011;3086;48.802;9.394;2023-05-09T06:55:00;19.83;;;17.83;;
6111;SDS011;3086;48.802;9.394;2023-05-09T06:58:22;20.47;;;17.87;;
6111;SDS011;3086;48.802;9.394;2023-05-09T07:01:43;20.23;;;18.07;;
6111;SDS011;3086;48.802;9.394;2023-05-09T07:05:05;19.77;;;17.77;;
6111;SDS011;3086;48.802;9.394;2023-05-09T07:08:28;19.00;;;17.10;;
6111;SDS011;3086;48.802;9.394;2023-05-09T07:11:50;19.30;;;17.40;;
6111;SDS011;3086;48.802;9.394;2023-05-09T07:15:11;20.83;;;18.63;;
6111;SDS011;3086;48.802;9.394;2023-05-09T07:18:33;21.37;;;19.17;;
6111;SDS011;3086;48.802;9.394;2023-05-09T07:21:54;22.20;;;19.80;;
6111;SDS011;3086;48.802;9.394;2023-05-09T07:25:17;21.83;;;19.53;;
6111;SDS011;3086;48.802;9.394;2023-05-09T07:28:39;21.17;;;18.97;;
6111;SDS011;3086;48.802;9.394;2023-05-09T07:32:00;21.37;;;19.23;;
6111;SDS011;3086;48.802;9.394;2023-05-09T07:35:22;34.00;;;20.17;;
6111;SDS011;3086;48.802;9.394;2023-05-09T07:38:43;19.97;;;17.97;;
6111;SDS011;3086;48.802;9.394;2023-05-09T07:42:09;17.10;;;15.30;;
6111;SDS011;3086;48.802;9.394;2023-05-09T07:45:30;19.90;;;17.73;;
6111;SDS011;3086;48.802;9.394;2023-05-09T07:48:52;17.83;;;15.97;;
6111;SDS011;3086;48.802;9.394;2023-05-09T07:52:14;17.80;;;15.73;;
6111;SDS011;3086;48.802;9.394;2023-05-09T07:55:36;19.63;;;17.63;;
6111;SDS011;3086;48.802;9.394;2023-05-09T07:58:59;16.73;;;15.10;;
6111;SDS011;3086;48.802;9.394;2023-05-09T08:02:20;19.17;;;16.77;;
6111;SDS011;3086;48.802;9.394;2023-05-09T08:05:42;18.30;;;16.00;;
6111;SDS011;3086;48.802;9.394;2023-05-09T08:09:03;18.50;;;16.43;;
6111;SDS011;3086;48.802;9.394;2023-05-09T08:12:25;18.60;;;16.70;;
6111;SDS011;3086;48.802;9.394;2023-05-09T08:15:48;16.47;;;14.77;;
6111;SDS011;3086;48.802;9.394;2023-05-09T08:19:10;16.80;;;14.97;;
6111;SDS011;3086;48.802;9.394;2023-05-09T08:22:31;15.20;;;13.70;;
6111;SDS011;3086;48.802;9.394;2023-05-09T08:25:53;14.53;;;12.33;;
6111;SDS011;3086;48.802;9.394;2023-05-09T08:29:15;10.07;;;9.07;;
6111;SDS011;3086;48.802;9.394;2023-05-09T08:32:38;13.23;;;11.87;;
6111;SDS011;3086;48.802;9.394;2023-05-09T08:35:59;7.70;;;7.00;;
6111;SDS011;3086;48.802;9.394;2023-05-09T08:39:22;8.30;;;7.40;;
6111;SDS011;3086;48.802;9.394;2023-05-09T08:42:43;9.30;;;6.77;;
6111;SDS011;3086;48.802;9.394;2023-05-09T08:46:06;48.60;;;43.43;;
6111;SDS011;3086;48.802;9.394;2023-05-09T08:49:29;9.30;;;8.30;;
6111;SDS011;3086;48.802;9.394;2023-05-09T08:52:52;8.60;;;7.50;;
6111;SDS011;3086;48.802;9.394;2023-05-09T08:56:13;6.83;;;6.23;;
6111;SDS011;3086;48.802;9.394;2023-05-09T08:59:35;7.63;;;6.93;;
6111;SDS011;3086;48.802;9.394;2023-05-09T09:03:00;6.80;;;6.10;;
6111;SDS011;3086;48.802;9.394;2023-05-09T09:06:24;5.43;;;4.93;;
6111;SDS011;3086;48.802;9.394;2023-05-09T09:09:46;6.57;;;5.33;;
6111;SDS011;3086;48.802;9.394;2023-05-09T09:13:09;7.30;;;6.70;;
6111;SDS011;3086;48.802;9.394;2023-05-09T09:16:32;6.63;;;5.80;;
6111;SDS011;3086;48.802;9.394;2023-05-09T09:19:55;6.37;;;5.80;;
6111;SDS011;3086;48.802;9.394;2023-05-09T09:23:20;7.73;;;6.53;;
6111;SDS011;3086;48.802;9.394;2023-05-09T09:26:45;6.57;;;5.97;;
6111;SDS011;3086;48.802;9.394;2023-05-09T09:30:08;7.03;;;6.33;;
6111;SDS011;3086;48.802;9.394;2023-05-09T09:33:31;6.07;;;5.43;;
6111;SDS011;3086;48.802;9.394;2023-05-09T09:36:52;6.30;;;5.70;;
6111;SDS011;3086;48.802;9.394;2023-05-09T09:40:15;6.10;;;5.50;;
6111;SDS011;3086;48.802;9.394;2023-05-09T09:43:37;5.60;;;5.10;;
6111;SDS011;3086;48.802;9.394;2023-05-09T09:46:58;7.03;;;6.33;;
6111;SDS011;3086;48.802;9.394;2023-05-09T09:50:20;7.30;;;6.70;;
6111;SDS011;3086;48.802;9.394;2023-05-09T09:53:44;6.67;;;6.00;;
6111;SDS011;3086;48.802;9.394;2023-05-09T09:57:07;8.17;;;7.10;;
6111;SDS011;3086;48.802;9.394;2023-05-09T10:00:29;10.90;;;6.53;;
6111;SDS011;3086;48.802;9.394;2023-05-09T10:03:51;8.27;;;7.47;;
6111;SDS011;3086;48.802;9.394;2023-05-09T10:07:13;7.90;;;7.10;;
6111;SDS011;3086;48.802;9.394;2023-05-09T10:10:35;8.23;;;7.03;;
6111;SDS011;3086;48.802;9.394;2023-05-09T10:13:58;8.00;;;7.20;;
6111;SDS011;3086;48.802;9.394;2023-05-09T10:17:21;7.93;;;7.23;;
6111;SDS011;3086;48.802;9.394;2023-05-09T10:20:42;9.60;;;8.70;;
6111;SDS011;3086;48.802;9.394;2023-05-09T10:24:04;9.43;;;8.53;;
6111;SDS011;3086;48.802;9.394;2023-05-09T10:27:27;7.60;;;6.90;;
6111;SDS011;3086;48.802;9.394;2023-05-09T10:30:55;8.30;;;7.50;;
6111;SDS011;3086;48.802;9.394;2023-05-09T10:34:18;4.40;;;4.00;;
6111;SDS011;3086;48.802;9.394;2023-05-09T10:37:41;3.93;;;3.63;;
6111;SDS011;3086;48.802;9.394;2023-05-09T10:41:03;4.60;;;4.20;;
6111;SDS011;3086;48.802;9.394;2023-05-09T10:44:25;4.50;;;4.10;;
6111;SDS011;3086;48.802;9.394;2023-05-09T10:47:50;3.90;;;3.60;;
6111;SDS011;3086;48.802;9.394;2023-05-09T10:51:12;4.00;;;3.70;;
6111;SDS011;3086;48.802;9.394;2023-05-09T10:54:35;3.07;;;2.77;;
6111;SDS011;3086;48.802;9.394;2023-05-09T10:57:56;4.10;;;3.43;;
6111;SDS011;3086;48.802;9.394;2023-05-09T11:01:38;3.67;;;3.37;;
6111;SDS011;3086;48.802;9.394;2023-05-09T11:05:13;4.70;;;3.73;;
6111;SDS011;3086;48.802;9.394;2023-05-09T11:08:36;4.13;;;3.73;;
6111;SDS011;3086;48.802;9.394;2023-05-09T11:12:09;3.90;;;3.60;;
6111;SDS011;3086;48.802;9.394;2023-05-09T11:15:31;4.00;;;3.70;;
6111;SDS011;3086;48.802;9.394;2023-05-09T11:18:52;4.80;;;4.40;;
6111;SDS011;3086;48.802;9.394;2023-05-09T11:22:16;5.47;;;4.60;;
6111;SDS011;3086;48.802;9.394;2023-05-09T11:25:39;7.23;;;5.23;;
6111;SDS011;3086;48.802;9.394;2023-05-09T11:29:02;5.97;;;5.47;;
6111;SDS011;3086;48.802;9.394;2023-05-09T11:32:26;5.77;;;5.27;;
6111;SDS011;3086;48.802;9.394;2023-05-09T11:39:57;6.70;;;6.10;;
6111;SDS011;3086;48.802;9.394;2023-05-09T11:43:20;6.43;;;5.90;;
6111;SDS011;3086;48.802;9.394;2023-05-09T11:46:42;6.80;;;6.20;;
6111;SDS011;3086;48.802;9.394;2023-05-09T11:50:05;6.00;;;5.23;;
6111;SDS011;3086;48.802;9.394;2023-05-09T11:53:27;6.43;;;5.40;;
6111;SDS011;3086;48.802;9.394;2023-05-09T11:56:50;6.20;;;5.40;;
6111;SDS011;3086;48.802;9.394;2023-05-09T12:00:12;5.30;;;4.67;;
6111;SDS011;3086;48.802;9.394;2023-05-09T12:03:40;6.10;;;5.60;;
6111;SDS011;3086;48.802;9.394;2023-05-09T12:07:02;6.30;;;5.77;;
6111;SDS011;3086;48.802;9.394;2023-05-09T12:10:24;6.33;;;5.83;;
6111;SDS011;3086;48.802;9.394;2023-05-09T12:13:47;7.93;;;5.83;;
6111;SDS011;3086;48.802;9.394;2023-05-09T12:17:09;6.03;;;5.43;;
6111;SDS011;3086;48.802;9.394;2023-05-09T12:20:41;6.73;;;5.97;;
6111;SDS011;3086;48.802;9.394;2023-05-09T12:24:03;5.90;;;5.40;;
6111;SDS011;3086;48.802;9.394;2023-05-09T12:27:25;5.70;;;5.20;;
6111;SDS011;3086;48.802;9.394;2023-05-09T12:30:49;5.23;;;4.80;;
6111;SDS011;3086;48.802;9.394;2023-05-09T12:34:11;5.07;;;4.63;;
6111;SDS011;3086;48.802;9.394;2023-05-09T12:37:33;5.13;;;4.50;;
6111;SDS011;3086;48.802;9.394;2023-05-09T12:41:04;6.43;;;4.77;;
6111;SDS011;3086;48.802;9.394;2023-05-09T12:44:27;4.63;;;4.23;;
6111;SDS011;3086;48.802;9.394;2023-05-09T12:47:51;5.40;;;4.20;;
6111;SDS011;3086;48.802;9.394;2023-05-09T12:51:16;4.77;;;3.63;;
6111;SDS011;3086;48.802;9.394;2023-05-09T12:54:39;3.97;;;3.50;;
6111;SDS011;3086;48.802;9.394;2023-05-09T12:58:06;3.77;;;3.47;;
6111;SDS011;3086;48.802;9.394;2023-05-09T13:01:28;4.07;;;3.67;;
6111;SDS011;3086;48.802;9.394;2023-05-09T13:04:51;3.50;;;3.20;;
6111;SDS011;3086;48.802;9.394;2023-05-09T13:08:25;5.50;;;4.17;;
6111;SDS011;3086;48.802;9.394;2023-05-09T13:11:47;4.10;;;3.70;;
6111;SDS011;3086;48.802;9.394;2023-05-09T13:15:09;3.50;;;3.20;;
6111;SDS011;3086;48.802;9.394;2023-05-09T13:18:31;4.40;;;3.83;;
6111;SDS011;3086;48.802;9.394;2023-05-09T13:21:54;3.60;;;3.30;;
6111;SDS011;3086;48.802;9.394;2023-05-09T13:25:16;4.97;;;3.70;;
6111;SDS011;3086;48.802;9.394;2023-05-09T13:28:39;4.23;;;3.83;;
6111;SDS011;3086;48.802;9.394;2023-05-09T13:32:00;3.37;;;3.07;;
6111;SDS011;3086;48.802;9.394;2023-05-09T13:35:22;3.33;;;3.03;;
6111;SDS011;3086;48.802;9.394;2023-05-09T13:38:45;3.57;;;3.10;;
6111;SDS011;3086;48.802;9.394;2023-05-09T13:42:07;4.03;;;3.63;;
6111;SDS011;3086;48.802;9.394;2023-05-09T13:45:29;3.80;;;3.30;;
6111;SDS011;3086;48.802;9.394;2023-05-09T13:48:50;3.70;;;3.20;;
6111;SDS011;3086;48.802;9.394;2023-05-09T13:52:12;4.10;;;3.50;;
6111;SDS011;3086;48.802;9.394;2023-05-09T13:55:36;3.70;;;3.40;;
6111;SDS011;3086;48.802;9.394;2023-05-09T13:58:57;3.80;;;3.40;;
6111;SDS011;3086;48.802;9.394;2023-05-09T14:02:19;5.13;;;3.30;;
6111;SDS011;3086;48.802;9.394;2023-05-09T14:05:40;5.40;;;3.83;;
6111;SDS011;3086;48.802;9.394;2023-05-09T14:09:02;3.33;;;3.10;;
6111;SDS011;3086;48.802;9.394;2023-05-09T14:12:25;3.40;;;3.20;;
6111;SDS011;3086;48.802;9.394;2023-05-09T14:15:47;3.47;;;3.13;;
6111;SDS011;3086;48.802;9.394;2023-05-09T14:19:09;3.40;;;3.10;;
6111;SDS011;3086;48.802;9.394;2023-05-09T14:22:31;3.93;;;3.47;;
6111;SDS011;3086;48.802;9.394;2023-05-09T14:25:52;3.57;;;3.27;;
6111;SDS011;3086;48.802;9.394;2023-05-09T14:29:15;3.37;;;3.10;;
6111;SDS011;3086;48.802;9.394;2023-05-09T14:32:37;4.10;;;3.80;;
6111;SDS011;3086;48.802;9.394;2023-05-09T14:35:58;3.93;;;3.40;;
6111;SDS011;3086;48.802;9.394;2023-05-09T14:39:21;3.70;;;3.27;;
6111;SDS011;3086;48.802;9.394;2023-05-09T14:42:44;4.23;;;2.80;;
6111;SDS011;3086;48.802;9.394;2023-05-09T14:46:07;3.23;;;2.87;;
6111;SDS011;3086;48.802;9.394;2023-05-09T14:49:29;3.53;;;3.33;;
6111;SDS011;3086;48.802;9.394;2023-05-09T14:52:51;3.50;;;3.20;;
6111;SDS011;3086;48.802;9.394;2023-05-09T14:56:12;5.20;;;3.20;;
6111;SDS011;3086;48.802;9.394;2023-05-09T14:59:34;9.07;;;4.30;;
6111;SDS011;3086;48.802;9.394;2023-05-09T15:02:57;5.93;;;3.50;;
6111;SDS011;3086;48.802;9.394;2023-05-09T15:06:19;7.70;;;3.83;;
6111;SDS011;3086;48.802;9.394;2023-05-09T15:09:42;6.07;;;4.10;;
6111;SDS011;3086;48.802;9.394;2023-05-09T15:13:03;10.40;;;5.00;;
6111;SDS011;3086;48.802;9.394;2023-05-09T15:16:25;6.47;;;3.60;;
6111;SDS011;3086;48.802;9.394;2023-05-09T15:19:48;5.00;;;3.37;;
6111;SDS011;3086;48.802;9.394;2023-05-09T15:23:10;2.97;;;2.50;;
6111;SDS011;3086;48.802;9.394;2023-05-09T15:26:32;5.57;;;3.27;;
6111;SDS011;3086;48.802;9.394;2023-05-09T15:29:54;5.13;;;3.70;;
6111;SDS011;3086;48.802;9.394;2023-05-09T15:33:15;8.00;;;3.70;;
6111;SDS011;3086;48.802;9.394;2023-05-09T15:36:38;3.07;;;2.67;;
6111;SDS011;3086;48.802;9.394;2023-05-09T15:40:00;4.10;;;3.10;;
6111;SDS011;3086;48.802;9.394;2023-05-09T15:43:22;3.40;;;3.07;;
6111;SDS011;3086;48.802;9.394;2023-05-09T15:46:43;6.17;;;3.50;;
6111;SDS011;3086;48.802;9.394;2023-05-09T15:50:05;4.50;;;3.03;;
6111;SDS011;3086;48.802;9.394;2023-05-09T15:53:29;8.00;;;4.03;;
6111;SDS011;3086;48.802;9.394;2023-05-09T15:56:50;6.77;;;4.07;;
6111;SDS011;3086;48.802;9.394;2023-05-09T16:00:12;12.80;;;4.10;;
6111;SDS011;3086;48.802;9.394;2023-05-09T16:03:36;4.50;;;3.20;;
6111;SDS011;3086;48.802;9.394;2023-05-09T16:06:58;6.00;;;4.17;;
6111;SDS011;3086;48.802;9.394;2023-05-09T16:10:22;5.93;;;3.23;;
6111;SDS011;3086;48.802;9.394;2023-05-09T16:13:44;3.73;;;3.00;;
6111;SDS011;3086;48.802;9.394;2023-05-09T16:17:06;4.13;;;3.03;;
6111;SDS011;3086;48.802;9.394;2023-05-09T16:20:27;3.13;;;2.60;;
6111;SDS011;3086;48.802;9.394;2023-05-09T16:23:49;3.20;;;2.90;;
6111;SDS011;3086;48.802;9.394;2023-05-09T16:27:12;2.90;;;2.70;;
6111;SDS011;3086;48.802;9.394;2023-05-09T16:30:34;5.00;;;2.80;;
6111;SDS011;3086;48.802;9.394;2023-05-09T16:33:55;4.70;;;3.43;;
6111;SDS011;3086;48.802;9.394;2023-05-09T16:37:17;9.17;;;3.73;;
6111;SDS011;3086;48.802;9.394;2023-05-09T16:40:40;4.57;;;3.60;;
6111;SDS011;3086;48.802;9.394;2023-05-09T16:44:03;4.33;;;3.40;;
6111;SDS011;3086;48.802;9.394;2023-05-09T16:47:24;3.53;;;3.03;;
6111;SDS011;3086;48.802;9.394;2023-05-09T16:50:46;3.27;;;3.03;;
6111;SDS011;3086;48.802;9.394;2023-05-09T16:54:07;3.73;;;2.63;;
6111;SDS011;3086;48.802;9.394;2023-05-09T16:57:29;4.47;;;2.90;;
6111;SDS011;3086;48.802;9.394;2023-05-09T17:00:52;3.77;;;2.90;;
6111;SDS011;3086;48.802;9.394;2023-05-09T17:04:14;4.07;;;3.03;;
6111;SDS011;3086;48.802;9.394;2023-05-09T17:07:36;5.77;;;3.60;;
6111;SDS011;3086;48.802;9.394;2023-05-09T17:10:57;4.17;;;3.80;;
6111;SDS011;3086;48.802;9.394;2023-05-09T17:14:19;5.53;;;3.90;;
6111;SDS011;3086;48.802;9.394;2023-05-09T17:17:42;5.50;;;3.67;;
6111;SDS011;3086;48.802;9.394;2023-05-09T17:21:03;13.23;;;3.60;;
6111;SDS011;3086;48.802;9.394;2023-05-09T17:24:25;6.70;;;3.53;;
6111;SDS011;3086;48.802;9.394;2023-05-09T17:27:47;5.47;;;3.50;;
6111;SDS011;3086;48.802;9.394;2023-05-09T17:31:08;5.27;;;3.60;;
6111;SDS011;3086;48.802;9.394;2023-05-09T17:34:31;3.50;;;3.10;;
6111;SDS011;3086;48.802;9.394;2023-05-09T17:37:53;3.47;;;2.80;;
6111;SDS011;3086;48.802;9.394;2023-05-09T17:41:14;5.20;;;4.20;;
6111;SDS011;3086;48.802;9.394;2023-05-09T17:44:36;8.07;;;3.70;;
6111;SDS011;3086;48.802;9.394;2023-05-09T17:48:00;4.07;;;3.67;;
6111;SDS011;3086;48.802;9.394;2023-05-09T17:51:23;5.60;;;4.40;;
6111;SDS011;3086;48.802;9.394;2023-05-09T17:54:45;5.97;;;4.10;;
6111;SDS011;3086;48.802;9.394;2023-05-09T17:58:07;6.73;;;4.67;;
6111;SDS011;3086;48.802;9.394;2023-05-09T18:01:28;6.33;;;3.93;;
6111;SDS011;3086;48.802;9.394;2023-05-09T18:04:50;8.93;;;4.50;;
6111;SDS011;3086;48.802;9.394;2023-05-09T18:08:13;5.70;;;4.80;;
6111;SDS011;3086;48.802;9.394;2023-05-09T18:11:35;5.80;;;4.40;;
6111;SDS011;3086;48.802;9.394;2023-05-09T18:14:56;4.53;;;4.00;;
6111;SDS011;3086;48.802;9.394;2023-05-09T18:18:18;4.10;;;3.17;;
6111;SDS011;3086;48.802;9.394;2023-05-09T18:21:39;6.47;;;3.60;;
6111;SDS011;3086;48.802;9.394;2023-05-09T18:25:02;3.60;;;3.30;;
6111;SDS011;3086;48.802;9.394;2023-05-09T18:28:24;6.00;;;4.30;;
6111;SDS011;3086;48.802;9.394;2023-05-09T18:31:46;7.37;;;4.40;;
6111;SDS011;3086;48.802;9.394;2023-05-09T18:35:08;6.10;;;4.63;;
6111;SDS011;3086;48.802;9.394;2023-05-09T18:38:30;7.73;;;4.73;;
6111;SDS011;3086;48.802;9.394;2023-05-09T18:41:55;5.90;;;4.20;;
6111;SDS011;3086;48.802;9.394;2023-05-09T18:45:16;5.17;;;4.20;;
6111;SDS011;3086;48.802;9.394;2023-05-09T18:48:39;6.20;;;4.57;;
6111;SDS011;3086;48.802;9.394;2023-05-09T18:52:01;5.27;;;4.77;;
6111;SDS011;3086;48.802;9.394;2023-05-09T18:55:22;7.03;;;5.37;;
6111;SDS011;3086;48.802;9.394;2023-05-09T18:58:45;6.97;;;5.07;;
6111;SDS011;3086;48.802;9.394;2023-05-09T19:02:09;9.53;;;5.40;;
6111;SDS011;3086;48.802;9.394;2023-05-09T19:05:30;11.13;;;5.13;;
6111;SDS011;3086;48.802;9.394;2023-05-09T19:08:52;8.47;;;4.70;;
6111;SDS011;3086;48.802;9.394;2023-05-09T19:12:13;7.77;;;4.20;;
6111;SDS011;3086;48.802;9.394;2023-05-09T19:15:38;4.80;;;4.00;;
6111;SDS011;3086;48.802;9.394;2023-05-09T19:18:59;5.00;;;3.80;;
6111;SDS011;3086;48.802;9.394;2023-05-09T19:22:21;7.77;;;3.87;;
6111;SDS011;3086;48.802;9.394;2023-05-09T19:25:42;4.63;;;4.03;;
6111;SDS011;3086;48.802;9.394;2023-05-09T19:29:05;4.93;;;3.80;;
6111;SDS011;3086;48.802;9.394;2023-05-09T19:32:29;4.53;;;3.50;;
6111;SDS011;3086;48.802;9.394;2023-05-09T19:35:50;4.17;;;3.77;;
6111;SDS011;3086;48.802;9.394;2023-05-09T19:39:12;7.33;;;4.33;;
6111;SDS011;3086;48.802;9.394;2023-05-09T19:42:34;4.57;;;4.03;;
6111;SDS011;3086;48.802;9.394;2023-05-09T19:45:56;3.90;;;3.53;;
6111;SDS011;3086;48.802;9.394;2023-05-09T19:49:20;4.63;;;4.10;;
6111;SDS011;3086;48.802;9.394;2023-05-09T19:52:41;4.20;;;3.43;;
6111;SDS011;3086;48.802;9.394;2023-05-09T19:56:17;4.27;;;3.70;;
6111;SDS011;3086;48.802;9.394;2023-05-09T19:59:39;4.90;;;3.70;;
6111;SDS011;3086;48.802;9.394;2023-05-09T20:03:00;4.77;;;3.67;;
6111;SDS011;3086;48.802;9.394;2023-05-09T20:06:24;3.80;;;3.50;;
6111;SDS011;3086;48.802;9.394;2023-05-09T20:09:46;3.53;;;3.23;;
6111;SDS011;3086;48.802;9.394;2023-05-09T20:13:07;4.17;;;3.77;;
6111;SDS011;3086;48.802;9.394;2023-05-09T20:16:29;3.93;;;3.30;;
6111;SDS011;3086;48.802;9.394;2023-05-09T20:19:50;4.37;;;3.60;;
6111;SDS011;3086;48.802;9.394;2023-05-09T20:23:13;6.37;;;3.57;;
6111;SDS011;3086;48.802;9.394;2023-05-09T20:26:35;3.47;;;3.17;;
6111;SDS011;3086;48.802;9.394;2023-05-09T20:29:56;5.60;;;3.20;;
6111;SDS011;3086;48.802;9.394;2023-05-09T20:33:18;8.50;;;3.90;;
6111;SDS011;3086;48.802;9.394;2023-05-09T20:36:39;4.13;;;3.73;;
6111;SDS011;3086;48.802;9.394;2023-05-09T20:40:03;4.20;;;3.80;;
6111;SDS011;3086;48.802;9.394;2023-05-09T20:43:26;4.10;;;3.63;;
6111;SDS011;3086;48.802;9.394;2023-05-09T20:46:47;3.90;;;3.53;;